createdAt,value
2016-06-06T08:40:13.089Z,24.1
2016-06-06T08:41:13.124Z,24.33
2016-06-06T08:42:13.064Z,24.47
2016-06-06T08:43:12.911Z,24.55
2016-06-06T08:44:13.507Z,24.71
2016-06-06T08:45:13.041Z,24.8
2016-06-06T08:46:13.043Z,24.8
2016-06-06T08:47:13.077Z,24.75
2016-06-06T08:48:13.002Z,24.8
2016-06-06T08:49:13.005Z,24.85
2016-06-06T08:50:12.991Z,24.93
2016-06-06T08:51:12.994Z,24.97
2016-06-06T08:52:12.982Z,25.12
2016-06-06T08:53:12.968Z,25.15
2016-06-06T08:54:12.987Z,24.95
2016-06-06T08:55:12.958Z,25
2016-06-06T08:56:12.960Z,25.11
2016-06-06T08:57:12.948Z,25.33
2016-06-06T08:58:12.950Z,25.49
2016-06-06T08:59:12.813Z,25.54
2016-06-06T09:00:12.784Z,25.77
2016-06-06T09:01:12.943Z,25.81
2016-06-06T09:02:12.931Z,25.82
2016-06-06T09:03:12.933Z,25.95
2016-06-06T09:04:12.904Z,26.1
2016-06-06T09:05:12.907Z,26
2016-06-06T09:06:12.925Z,25.88
2016-06-06T09:07:12.881Z,25.79
2016-06-06T09:08:12.977Z,25.88
2016-06-06T09:09:12.871Z,25.94
2016-06-06T09:10:12.748Z,26.11
2016-06-06T09:11:12.861Z,26.04
2016-06-06T09:12:12.864Z,26.22
2016-06-06T09:13:12.866Z,26.3
2016-06-06T09:14:12.963Z,26.52
2016-06-06T09:15:12.933Z,26.66
2016-06-06T09:16:12.874Z,26.76
2016-06-06T09:17:12.830Z,27
2016-06-06T09:18:12.833Z,27.06
2016-06-06T09:19:12.819Z,27.21
2016-06-06T09:20:12.885Z,27.34
2016-06-06T09:21:12.825Z,27.44
2016-06-06T09:22:12.812Z,27.59
2016-06-06T09:23:12.815Z,27.55
2016-06-06T09:24:12.802Z,27.74
2016-06-06T09:25:12.804Z,27.84
2016-06-06T09:26:12.791Z,27.87
2016-06-06T09:27:12.794Z,27.97
2016-06-06T09:28:12.813Z,28.08
2016-06-06T09:29:12.674Z,28.27
2016-06-06T09:30:12.787Z,28.31
2016-06-06T09:31:12.789Z,28.08
2016-06-06T09:32:12.792Z,28.1
2016-06-06T09:33:12.779Z,28.27
2016-06-06T09:34:12.813Z,28.24
2016-06-06T09:35:12.770Z,28.27
2016-06-06T09:36:12.772Z,28.46
2016-06-06T09:37:12.775Z,28.49
2016-06-06T09:38:12.777Z,28.31
2016-06-06T09:39:12.795Z,28.43
2016-06-06T09:40:12.783Z,28.55
2016-06-06T09:41:12.770Z,28.61
2016-06-06T09:42:12.803Z,28.95
2016-06-06T09:43:12.619Z,28.86
2016-06-06T09:44:12.636Z,28.86
2016-06-06T09:45:12.797Z,28.97
2016-06-06T09:46:12.767Z,28.97
2016-06-06T09:47:12.739Z,29.15
2016-06-06T09:48:12.757Z,29.21
2016-06-06T09:49:12.807Z,29.35
2016-06-06T09:50:12.746Z,29.58
2016-06-06T09:51:12.765Z,29.61
2016-06-06T09:52:12.768Z,29.47
2016-06-06T09:53:12.755Z,29.43
2016-06-06T09:54:12.742Z,29.47
2016-06-06T09:55:12.760Z,29.47
2016-06-06T09:56:12.747Z,29.61
2016-06-06T09:57:12.766Z,29.3
2016-06-06T09:58:12.752Z,29.44
2016-06-06T09:59:12.990Z,29.4
2016-06-06T10:00:12.758Z,29.37
2016-06-06T10:01:12.761Z,29.2
2016-06-06T10:02:12.748Z,28.89
2016-06-06T10:03:12.626Z,29.03
2016-06-06T10:04:12.768Z,29.12
2016-06-06T10:05:12.756Z,29.07
2016-06-06T10:06:12.790Z,29.17
2016-06-06T10:07:12.762Z,29.27
2016-06-06T10:08:12.748Z,29.49
2016-06-06T10:09:12.751Z,29.61
2016-06-06T10:10:12.769Z,29.77
2016-06-06T10:11:12.757Z,29.86
2016-06-06T10:12:12.744Z,29.94
2016-06-06T10:13:12.746Z,30.13
2016-06-06T10:14:12.781Z,30.14
2016-06-06T10:15:12.736Z,30.46
2016-06-06T10:16:12.770Z,30.39
2016-06-06T10:17:12.741Z,30.38
2016-06-06T10:18:12.728Z,30.29
2016-06-06T10:19:12.763Z,30.25
2016-06-06T10:20:12.797Z,30.39
2016-06-06T10:21:12.736Z,30.25
2016-06-06T10:22:12.755Z,30.46
2016-06-06T10:23:12.742Z,30.56
2016-06-06T10:24:12.729Z,30.77
2016-06-06T10:25:12.732Z,30.86
2016-06-06T10:26:12.719Z,30.82
2016-06-06T10:27:12.737Z,30.67
2016-06-06T10:28:12.723Z,30.71
2016-06-06T10:29:12.727Z,30.83
2016-06-06T10:30:12.745Z,30.83
2016-06-06T10:31:12.732Z,30.81
2016-06-06T10:32:12.734Z,30.76
2016-06-06T10:33:12.721Z,30.83
2016-06-06T10:34:12.724Z,30.66
2016-06-06T10:35:12.743Z,30.58
2016-06-06T10:36:12.729Z,30.76
2016-06-06T10:37:12.717Z,30.89
2016-06-06T10:38:12.719Z,31.18
2016-06-06T10:39:12.817Z,30.92
2016-06-06T10:40:12.584Z,30.58
2016-06-06T10:41:12.743Z,30.25
2016-06-06T10:42:12.714Z,30.1
2016-06-06T10:43:12.764Z,29.92
2016-06-06T10:44:12.798Z,30.13
2016-06-06T10:45:13.754Z,30.25
2016-06-06T10:46:12.725Z,30.33
2016-06-06T10:47:12.728Z,30.51
2016-06-06T10:48:12.716Z,30.64
2016-06-06T10:49:12.702Z,30.71
2016-06-06T10:50:12.705Z,30.81
2016-06-06T10:51:12.708Z,30.83
2016-06-06T10:52:12.695Z,31.01
2016-06-06T10:53:12.713Z,31.12
2016-06-06T10:54:12.669Z,31.32
2016-06-06T10:55:12.703Z,31.34
2016-06-06T10:56:12.690Z,31.34
2016-06-06T10:57:12.677Z,31.32
2016-06-06T10:58:12.695Z,31.48
2016-06-06T10:59:13.635Z,31.54
2016-06-06T11:00:12.685Z,31.15
2016-06-06T11:01:12.672Z,31.04
2016-06-06T11:02:12.674Z,31.07
2016-06-06T11:03:12.677Z,31.23
2016-06-06T11:04:12.665Z,31.25
2016-06-06T11:05:12.668Z,31.19
2016-06-06T11:06:12.515Z,31.22
2016-06-06T11:07:12.657Z,31.29
2016-06-06T11:08:12.659Z,31.38
2016-06-06T11:09:12.647Z,31.51
2016-06-06T11:10:12.650Z,31.59
2016-06-06T11:11:12.653Z,31.59
2016-06-06T11:12:12.639Z,31.62
2016-06-06T11:13:12.642Z,31.7
2016-06-06T11:14:13.645Z,31.9
2016-06-06T11:15:13.959Z,31.7
2016-06-06T11:16:12.681Z,31.7
2016-06-06T11:17:12.636Z,31.54
2016-06-06T11:18:12.656Z,31.52
2016-06-06T11:19:12.627Z,31.54
2016-06-06T11:20:12.614Z,31.57
2016-06-06T11:21:12.633Z,31.71
2016-06-06T11:22:12.619Z,31.82
2016-06-06T11:23:12.622Z,31.33
2016-06-06T11:24:12.625Z,31.22
2016-06-06T11:25:12.611Z,31.27
2016-06-06T11:26:12.614Z,31.15
2016-06-06T11:27:12.617Z,31.22
2016-06-06T11:28:12.604Z,31.15
2016-06-06T11:29:12.466Z,31.32
2016-06-06T11:30:13.032Z,31.44
2016-06-06T11:31:12.737Z,31.57
2016-06-06T11:32:12.584Z,31.59
2016-06-06T11:33:12.618Z,31.64
2016-06-06T11:34:12.589Z,31.85
2016-06-06T11:35:12.592Z,31.76
2016-06-06T11:36:12.579Z,31.54
2016-06-06T11:37:12.676Z,31.67
2016-06-06T11:38:12.568Z,31.76
2016-06-06T11:39:12.618Z,31.95
2016-06-06T11:40:12.573Z,32.05
2016-06-06T11:41:12.576Z,32.13
2016-06-06T11:42:12.564Z,32.21
2016-06-06T11:43:12.582Z,32.29
2016-06-06T11:44:12.569Z,32.24
2016-06-06T11:45:13.478Z,32.14
2016-06-06T11:46:12.403Z,32.16
2016-06-06T11:47:12.420Z,31.92
2016-06-06T11:48:12.548Z,31.7
2016-06-06T11:49:12.551Z,31.78
2016-06-06T11:50:12.539Z,31.82
2016-06-06T11:51:12.541Z,31.94
2016-06-06T11:52:12.544Z,32.09
2016-06-06T11:53:12.547Z,31.85
2016-06-06T11:54:12.375Z,32.04
2016-06-06T11:55:12.536Z,32.13
2016-06-06T11:56:12.539Z,32.35
2016-06-06T11:57:12.541Z,32.45
2016-06-06T11:58:12.526Z,32.38
2016-06-06T11:59:13.859Z,32.5
2016-06-06T12:00:13.363Z,32.5
2016-06-06T12:01:12.519Z,32.38
2016-06-06T12:02:12.568Z,32.45
2016-06-06T12:03:12.523Z,32.45
2016-06-06T12:04:12.511Z,32.53
2016-06-06T12:05:12.514Z,32.6
2016-06-06T12:06:12.579Z,32.53
2016-06-06T12:07:12.518Z,32.48
2016-06-06T12:08:12.569Z,32.48
2016-06-06T12:09:12.540Z,32.5
2016-06-06T12:10:12.526Z,32.5
2016-06-06T12:11:12.499Z,32.47
2016-06-06T12:12:12.564Z,32.48
2016-06-06T12:13:12.504Z,32.5
2016-06-06T12:14:12.554Z,32.51
2016-06-06T12:15:12.493Z,32.41
2016-06-06T12:16:12.496Z,32.42
2016-06-06T12:17:12.484Z,32.23
2016-06-06T12:18:12.501Z,32.13
2016-06-06T12:19:12.473Z,32.13
2016-06-06T12:20:12.476Z,32.26
2016-06-06T12:21:12.509Z,32.26
2016-06-06T12:22:12.481Z,32.02
2016-06-06T12:23:12.469Z,31.92
2016-06-06T12:24:12.486Z,31.82
2016-06-06T12:25:12.520Z,31.99
2016-06-06T12:26:12.476Z,31.98
2016-06-06T12:27:12.463Z,32.04
2016-06-06T12:28:12.466Z,32.02
2016-06-06T12:29:12.484Z,32.08
2016-06-06T12:30:12.487Z,31.92
2016-06-06T12:31:12.521Z,31.71
2016-06-06T12:32:12.477Z,31.76
2016-06-06T12:33:12.542Z,31.78
2016-06-06T12:34:12.451Z,31.69
2016-06-06T12:35:12.437Z,31.85
2016-06-06T12:36:12.441Z,32.05
2016-06-06T12:37:12.474Z,31.9
2016-06-06T12:38:12.446Z,31.94
2016-06-06T12:39:12.432Z,31.7
2016-06-06T12:40:12.435Z,31.62
2016-06-06T12:41:12.438Z,31.7
2016-06-06T12:42:12.426Z,31.81
2016-06-06T12:43:12.428Z,31.9
2016-06-06T12:44:12.619Z,32.02
2016-06-06T12:45:12.434Z,31.95
2016-06-06T12:46:12.405Z,31.89
2016-06-06T12:47:12.408Z,31.82
2016-06-06T12:48:12.411Z,31.85
2016-06-06T12:49:12.414Z,31.7
2016-06-06T12:50:12.416Z,31.82
2016-06-06T12:51:12.403Z,31.79
2016-06-06T12:52:12.422Z,31.85
2016-06-06T12:53:12.252Z,31.94
2016-06-06T12:54:12.395Z,32.04
2016-06-06T12:55:12.414Z,32.19
2016-06-06T12:56:12.401Z,32.21
2016-06-06T12:57:12.388Z,32.13
2016-06-06T12:58:12.405Z,32.04
2016-06-06T12:59:12.455Z,32.01
2016-06-06T13:00:13.302Z,32.07
2016-06-06T13:01:12.383Z,32.23
2016-06-06T13:02:12.480Z,32.34
2016-06-06T13:03:12.388Z,32.47
2016-06-06T13:04:12.438Z,32.47
2016-06-06T13:05:12.393Z,32.21
2016-06-06T13:06:12.366Z,32.26
2016-06-06T13:07:12.368Z,32.32
2016-06-06T13:08:12.370Z,31.95
2016-06-06T13:09:12.358Z,31.94
2016-06-06T13:10:12.360Z,31.9
2016-06-06T13:11:12.363Z,31.86
2016-06-06T13:12:12.225Z,31.9
2016-06-06T13:13:12.353Z,31.51
2016-06-06T13:14:12.449Z,31.52
2016-06-06T13:15:12.218Z,31.63
2016-06-06T13:16:12.345Z,31.79
2016-06-06T13:17:12.192Z,31.98
2016-06-06T13:18:12.350Z,32.12
2016-06-06T13:19:12.369Z,32.24
2016-06-06T13:20:12.325Z,32.29
2016-06-06T13:21:12.328Z,32.23
2016-06-06T13:22:12.345Z,32.29
2016-06-06T13:23:12.348Z,32.21
2016-06-06T13:24:12.336Z,32.04
2016-06-06T13:25:12.322Z,32.14
2016-06-06T13:26:12.341Z,32.16
2016-06-06T13:27:12.328Z,32.32
2016-06-06T13:28:12.330Z,32.45
2016-06-06T13:29:12.317Z,32.47
2016-06-06T13:30:12.805Z,32.51
2016-06-06T13:31:12.322Z,32.27
2016-06-06T13:32:12.154Z,31.99
2016-06-06T13:33:12.313Z,31.82
2016-06-06T13:34:12.315Z,31.9
2016-06-06T13:35:12.146Z,31.95
2016-06-06T13:36:12.305Z,32.02
2016-06-06T13:37:12.386Z,32.13
2016-06-06T13:38:12.326Z,32.27
2016-06-06T13:39:12.313Z,32.35
2016-06-06T13:40:12.285Z,32.41
2016-06-06T13:41:12.287Z,32.48
2016-06-06T13:42:12.306Z,32.51
2016-06-06T13:43:12.292Z,32.58
2016-06-06T13:44:12.296Z,32.76
2016-06-06T13:45:13.268Z,32.66
2016-06-06T13:46:12.285Z,32.87
2016-06-06T13:47:12.287Z,32.7
2016-06-06T13:48:12.291Z,32.51
2016-06-06T13:49:12.278Z,32.54
2016-06-06T13:50:12.280Z,32.5
2016-06-06T13:51:12.126Z,32.56
2016-06-06T13:52:12.286Z,32.6
2016-06-06T13:53:12.289Z,32.41
2016-06-06T13:54:12.275Z,32.32
2016-06-06T13:55:12.262Z,32.2
2016-06-06T13:56:12.281Z,32.34
2016-06-06T13:57:12.267Z,32.45
2016-06-06T13:58:12.317Z,32.51
2016-06-06T13:59:13.491Z,32.54
2016-06-06T14:00:12.916Z,32.36
2016-06-06T14:01:12.091Z,32.16
2016-06-06T14:02:12.250Z,32.07
2016-06-06T14:03:12.253Z,31.89
2016-06-06T14:04:12.255Z,31.87
2016-06-06T14:05:12.243Z,31.87
2016-06-06T14:06:12.308Z,31.98
2016-06-06T14:07:12.249Z,32.12
2016-06-06T14:08:12.235Z,32.09
2016-06-06T14:09:12.254Z,32.19
2016-06-06T14:10:12.224Z,32.01
2016-06-06T14:11:12.243Z,32.12
2016-06-06T14:12:12.230Z,32.24
2016-06-06T14:13:12.233Z,32.05
2016-06-06T14:14:12.251Z,32.05
2016-06-06T14:15:12.645Z,32.01
2016-06-06T14:16:12.210Z,31.95
2016-06-06T14:17:12.229Z,32.02
2016-06-06T14:18:12.215Z,32.17
2016-06-06T14:19:12.217Z,32.2
2016-06-06T14:20:12.220Z,32.13
2016-06-06T14:21:12.223Z,32.07
2016-06-06T14:22:12.194Z,31.74
2016-06-06T14:23:12.212Z,31.71
2016-06-06T14:24:12.200Z,31.71
2016-06-06T14:25:12.203Z,31.82
2016-06-06T14:26:12.050Z,31.95
2016-06-06T14:27:12.302Z,32.08
2016-06-06T14:28:12.194Z,32.16
2016-06-06T14:29:12.245Z,32.23
2016-06-06T14:30:12.060Z,32.23
2016-06-06T14:31:12.187Z,32.31
2016-06-06T14:32:12.191Z,32.34
2016-06-06T14:33:12.177Z,32.27
2016-06-06T14:34:12.180Z,32.31
2016-06-06T14:35:12.182Z,32.09
2016-06-06T14:36:12.185Z,32.16
2016-06-06T14:37:12.188Z,32.01
2016-06-06T14:38:12.175Z,31.95
2016-06-06T14:39:12.177Z,32.04
2016-06-06T14:40:12.181Z,32.12
2016-06-06T14:41:12.152Z,32.07
2016-06-06T14:42:12.170Z,32.01
2016-06-06T14:43:12.173Z,31.94
2016-06-06T14:44:12.957Z,31.95
2016-06-06T14:45:12.163Z,31.94
2016-06-06T14:46:12.165Z,31.97
2016-06-06T14:47:12.152Z,32.02
2016-06-06T14:48:12.139Z,32.05
2016-06-06T14:49:12.143Z,32.05
2016-06-06T14:50:12.270Z,31.97
2016-06-06T14:51:12.131Z,31.81
2016-06-06T14:52:12.181Z,31.71
2016-06-06T14:53:12.122Z,31.7
2016-06-06T14:54:12.202Z,31.69
2016-06-06T14:55:12.111Z,31.71
2016-06-06T14:56:12.176Z,31.74
2016-06-06T14:57:12.117Z,31.7
2016-06-06T14:58:12.119Z,31.74
2016-06-06T14:59:12.139Z,31.62
2016-06-06T15:00:12.187Z,31.49
2016-06-06T15:01:12.128Z,31.51
2016-06-06T15:02:12.114Z,31.56
2016-06-06T15:03:12.117Z,31.34
2016-06-06T15:04:12.105Z,31.26
2016-06-06T15:05:12.107Z,31.19
2016-06-06T15:06:12.110Z,31.12
2016-06-06T15:07:12.113Z,30.95
2016-06-06T15:08:12.099Z,30.9
2016-06-06T15:09:12.119Z,30.95
2016-06-06T15:10:12.089Z,31.01
2016-06-06T15:11:11.935Z,30.95
2016-06-06T15:12:12.079Z,31
2016-06-06T15:13:12.160Z,31
2016-06-06T15:14:12.490Z,31.04
2016-06-06T15:15:12.165Z,31.05
2016-06-06T15:16:12.074Z,31.05
2016-06-06T15:17:12.076Z,31.11
2016-06-06T15:18:12.079Z,31.18
2016-06-06T15:19:12.082Z,31.1
2016-06-06T15:20:12.054Z,31.04
2016-06-06T15:21:12.057Z,30.88
2016-06-06T15:22:12.059Z,30.7
2016-06-06T15:23:12.062Z,30.66
2016-06-06T15:24:12.065Z,30.64
2016-06-06T15:25:12.052Z,30.58
2016-06-06T15:26:12.054Z,30.61
2016-06-06T15:27:12.041Z,30.58
2016-06-06T15:28:11.872Z,30.55
2016-06-06T15:29:29.268Z,30.58
2016-06-06T15:30:13.003Z,30.61
2016-06-06T15:31:12.037Z,30.63
2016-06-06T15:32:12.023Z,30.74
2016-06-06T15:33:12.011Z,30.81
2016-06-06T15:34:12.028Z,30.7
2016-06-06T15:35:12.017Z,30.55
2016-06-06T15:36:11.863Z,30.43
2016-06-06T15:37:12.006Z,30.43
2016-06-06T15:38:12.008Z,30.55
2016-06-06T15:39:11.996Z,30.52
2016-06-06T15:40:11.999Z,30.52
2016-06-06T15:41:12.001Z,30.49
2016-06-06T15:42:11.988Z,30.38
2016-06-06T15:43:11.990Z,30.39
2016-06-06T15:44:11.993Z,30.38
2016-06-06T15:45:12.824Z,30.43
2016-06-06T15:46:11.983Z,30.38
2016-06-06T15:47:11.986Z,30.4
2016-06-06T15:48:11.973Z,30.26
2016-06-06T15:49:11.835Z,30.17
2016-06-06T15:50:11.963Z,30.25
2016-06-06T15:51:11.794Z,30.28
2016-06-06T15:52:12.031Z,30.25
2016-06-06T15:53:11.955Z,30.17
2016-06-06T15:54:11.957Z,30.18
2016-06-06T15:55:11.929Z,30.23
2016-06-06T15:56:11.854Z,30.23
2016-06-06T15:57:11.950Z,30.23
2016-06-06T15:58:11.922Z,30.23
2016-06-06T15:59:11.971Z,30.29
2016-06-06T16:00:11.959Z,30.18
2016-06-06T16:01:11.930Z,30.26
2016-06-06T16:02:11.933Z,30.25
2016-06-06T16:03:11.920Z,30.1
2016-06-06T16:04:11.922Z,30.07
2016-06-06T16:05:11.894Z,30.11
2016-06-06T16:06:11.912Z,30.1
2016-06-06T16:07:11.914Z,30.03
2016-06-06T16:08:11.902Z,30.16
2016-06-06T16:09:11.873Z,30.01
2016-06-06T16:10:11.908Z,29.99
2016-06-06T16:11:11.878Z,29.95
2016-06-06T16:12:11.881Z,29.8
2016-06-06T16:13:11.869Z,29.91
2016-06-06T16:14:11.872Z,29.92
2016-06-06T16:15:11.905Z,29.92
2016-06-06T16:16:11.877Z,29.98
2016-06-06T16:17:11.848Z,29.81
2016-06-06T16:18:11.851Z,29.73
2016-06-06T16:19:11.885Z,29.72
2016-06-06T16:20:11.841Z,29.79
2016-06-06T16:21:11.843Z,29.77
2016-06-06T16:22:11.846Z,29.79
2016-06-06T16:23:11.677Z,29.61
2016-06-06T16:24:11.835Z,29.73
2016-06-06T16:25:11.838Z,29.77
2016-06-06T16:26:11.841Z,29.89
2016-06-06T16:27:11.812Z,29.89
2016-06-06T16:28:11.815Z,29.99
2016-06-06T16:29:11.865Z,30.02
2016-06-06T16:30:11.804Z,30.05
2016-06-06T16:31:11.792Z,30.02
2016-06-06T16:32:11.810Z,30.02
2016-06-06T16:33:11.797Z,30.08
2016-06-06T16:34:11.784Z,30.03
2016-06-06T16:35:11.803Z,29.89
2016-06-06T16:36:11.775Z,29.94
2016-06-06T16:37:11.792Z,29.94
2016-06-06T16:38:11.780Z,29.91
2016-06-06T16:39:11.814Z,29.86
2016-06-06T16:40:11.785Z,29.84
2016-06-06T16:41:11.756Z,29.8
2016-06-06T16:42:11.759Z,29.89
2016-06-06T16:43:11.766Z,29.79
2016-06-06T16:44:11.759Z,29.83
2016-06-06T16:45:11.859Z,29.77
2016-06-06T16:46:11.774Z,29.57
2016-06-06T16:47:11.766Z,29.57
2016-06-06T16:48:11.755Z,29.49
2016-06-06T16:49:11.759Z,29.55
2016-06-06T16:50:11.778Z,29.49
2016-06-06T16:51:11.783Z,29.51
2016-06-06T16:52:11.756Z,29.51
2016-06-06T16:53:11.760Z,29.52
2016-06-06T16:54:11.794Z,29.52
2016-06-06T16:55:11.767Z,29.47
2016-06-06T16:56:11.754Z,29.49
2016-06-06T16:57:11.727Z,29.51
2016-06-06T16:58:11.746Z,29.51
2016-06-06T16:59:11.716Z,29.49
2016-06-06T17:00:11.689Z,29.35
2016-06-06T17:01:11.723Z,29.49
2016-06-06T17:02:11.726Z,29.33
2016-06-06T17:03:11.714Z,29.31
2016-06-06T17:04:11.700Z,29.22
2016-06-06T17:05:11.703Z,29.24
2016-06-06T17:06:11.705Z,29.24
2016-06-06T17:07:11.709Z,29.2
2016-06-06T17:08:11.555Z,29.12
2016-06-06T17:09:11.683Z,29.2
2016-06-06T17:10:11.670Z,29.24
2016-06-06T17:11:11.672Z,29.22
2016-06-06T17:12:11.675Z,29.25
2016-06-06T17:13:11.678Z,29.21
2016-06-06T17:14:11.680Z,29.24
2016-06-06T17:15:12.121Z,29.43
2016-06-06T17:16:11.655Z,29.33
2016-06-06T17:17:11.657Z,29.47
2016-06-06T17:18:11.644Z,29.39
2016-06-06T17:19:11.647Z,29.36
2016-06-06T17:20:11.649Z,29.46
2016-06-06T17:21:11.652Z,29.46
2016-06-06T17:22:11.655Z,29.51
2016-06-06T17:23:11.627Z,29.47
2016-06-06T17:24:11.613Z,29.49
2016-06-06T17:25:11.679Z,29.44
2016-06-06T17:26:11.618Z,29.46
2016-06-06T17:27:11.637Z,29.37
2016-06-06T17:28:11.593Z,29.37
2016-06-06T17:29:11.626Z,29.21
2016-06-06T17:30:11.912Z,29.21
2016-06-06T17:31:11.617Z,29.28
2016-06-06T17:32:11.588Z,29.22
2016-06-06T17:33:11.592Z,29.2
2016-06-06T17:34:11.594Z,29.17
2016-06-06T17:35:11.564Z,29.12
2016-06-06T17:36:11.583Z,29.17
2016-06-06T17:37:11.555Z,29.21
2016-06-06T17:38:11.557Z,29.17
2016-06-06T17:39:11.576Z,29.15
2016-06-06T17:40:11.547Z,29.18
2016-06-06T17:41:11.565Z,29.21
2016-06-06T17:42:11.537Z,29.3
2016-06-06T17:43:11.524Z,29.1
2016-06-06T17:44:11.558Z,29.1
2016-06-06T17:45:12.029Z,29.03
2016-06-06T17:46:11.533Z,29
2016-06-06T17:47:11.207Z,28.93
2016-06-06T17:48:11.521Z,28.79
2016-06-06T17:49:11.510Z,28.93
2016-06-06T17:50:11.512Z,28.82
2016-06-06T17:51:11.514Z,28.79
2016-06-06T17:52:11.501Z,28.65
2016-06-06T17:53:11.488Z,28.68
2016-06-06T17:54:11.476Z,28.58
2016-06-06T17:55:11.478Z,28.6
2016-06-06T17:56:11.465Z,28.49
2016-06-06T17:57:11.468Z,28.49
2016-06-06T17:58:11.470Z,28.49
2016-06-06T17:59:11.473Z,28.49
2016-06-06T18:00:12.054Z,28.4
2016-06-06T18:01:11.448Z,28.28
2016-06-06T18:02:11.450Z,28.33
2016-06-06T18:03:11.453Z,28.28
2016-06-06T18:04:11.331Z,28.25
2016-06-06T18:05:11.442Z,28.24
2016-06-06T18:06:11.414Z,28.15
2016-06-06T18:07:11.417Z,28.21
2016-06-06T18:08:11.466Z,28.25
2016-06-06T18:09:11.422Z,28.18
2016-06-06T18:10:11.409Z,28.28
2016-06-06T18:11:11.396Z,28.18
2016-06-06T18:12:11.399Z,28.15
2016-06-06T18:13:11.402Z,28.13
2016-06-06T18:14:11.483Z,28.16
2016-06-06T18:15:12.313Z,28.06
2016-06-06T18:16:11.238Z,28.12
2016-06-06T18:17:11.381Z,28.15
2016-06-06T18:18:11.383Z,28.12
2016-06-06T18:19:11.355Z,28.05
2016-06-06T18:20:11.186Z,28.05
2016-06-06T18:21:11.361Z,27.97
2016-06-06T18:22:11.348Z,28.03
2016-06-06T18:23:11.319Z,28
2016-06-06T18:24:11.337Z,28.03
2016-06-06T18:25:11.325Z,28
2016-06-06T18:26:11.342Z,28.08
2016-06-06T18:27:11.314Z,28.09
2016-06-06T18:28:11.317Z,28.1
2016-06-06T18:29:11.320Z,28.13
2016-06-06T18:30:11.697Z,28.16
2016-06-06T18:31:11.373Z,28.15
2016-06-06T18:32:11.296Z,28.1
2016-06-06T18:33:11.361Z,28.13
2016-06-06T18:34:11.286Z,28.09
2016-06-06T18:35:11.289Z,28.1
2016-06-06T18:36:11.276Z,28.03
2016-06-06T18:37:11.263Z,28.06
2016-06-06T18:38:11.266Z,28.03
2016-06-06T18:39:11.237Z,28.08
2016-06-06T18:40:11.083Z,27.98
2016-06-06T18:41:11.274Z,27.98
2016-06-06T18:42:11.245Z,27.94
2016-06-06T18:43:11.294Z,28
2016-06-06T18:44:11.251Z,27.98
2016-06-06T18:45:11.785Z,28
2016-06-06T18:46:11.209Z,27.96
2016-06-06T18:47:11.055Z,27.97
2016-06-06T18:48:11.199Z,27.98
2016-06-06T18:49:11.217Z,28.01
2016-06-06T18:50:11.188Z,27.97
2016-06-06T18:51:11.176Z,27.9
2016-06-06T18:52:11.194Z,27.9
2016-06-06T18:53:11.182Z,27.75
2016-06-06T18:54:11.168Z,27.79
2016-06-06T18:55:11.154Z,27.71
2016-06-06T18:56:11.158Z,27.72
2016-06-06T18:57:11.160Z,27.74
2016-06-06T18:58:11.148Z,27.71
2016-06-06T18:59:11.151Z,27.78
2016-06-06T19:00:11.137Z,27.68
2016-06-06T19:01:11.139Z,27.75
2016-06-06T19:02:11.142Z,27.55
2016-06-06T19:03:11.114Z,27.74
2016-06-06T19:04:11.117Z,27.68
2016-06-06T19:05:10.963Z,27.59
2016-06-06T19:06:11.122Z,27.53
2016-06-06T19:07:11.109Z,27.49
2016-06-06T19:08:11.128Z,27.4
2016-06-06T19:09:11.099Z,27.41
2016-06-06T19:10:11.102Z,27.37
2016-06-06T19:11:11.058Z,27.4
2016-06-06T19:12:11.092Z,27.36
2016-06-06T19:13:11.078Z,27.4
2016-06-06T19:14:11.050Z,27.43
2016-06-06T19:15:11.052Z,27.36
2016-06-06T19:16:11.040Z,27.34
2016-06-06T19:17:11.386Z,27.36
2016-06-06T19:18:11.045Z,27.38
2016-06-06T19:19:10.876Z,27.37
2016-06-06T19:20:11.035Z,27.34
2016-06-06T19:21:11.022Z,27.18
2016-06-06T19:22:11.010Z,27.12
2016-06-06T19:23:10.871Z,27.03
2016-06-06T19:24:11.015Z,27.01
2016-06-06T19:25:10.985Z,27.01
2016-06-06T19:26:10.973Z,26.98
2016-06-06T19:27:10.804Z,26.88
2016-06-06T19:28:10.993Z,26.91
2016-06-06T19:29:10.965Z,26.79
2016-06-06T19:30:10.952Z,26.81
2016-06-06T19:31:10.955Z,26.74
2016-06-06T19:32:10.942Z,26.74
2016-06-06T19:33:10.945Z,26.75
2016-06-06T19:34:10.948Z,26.7
2016-06-06T19:35:11.434Z,26.75
2016-06-06T19:36:10.922Z,26.6
2016-06-06T19:37:10.909Z,26.56
2016-06-06T19:38:10.928Z,26.59
2016-06-06T19:39:10.883Z,26.59
2016-06-06T19:40:10.886Z,26.56
2016-06-06T19:41:10.904Z,26.57
2016-06-06T19:42:10.875Z,26.49
2016-06-06T19:43:10.909Z,26.45
2016-06-06T19:44:10.865Z,26.47
2016-06-06T19:45:10.883Z,26.47
2016-06-06T19:46:10.870Z,26.42
2016-06-06T19:47:10.858Z,26.47
2016-06-06T19:48:10.844Z,26.42
2016-06-06T19:49:10.941Z,26.34
2016-06-06T19:50:10.818Z,26.38
2016-06-06T19:51:10.883Z,26.24
2016-06-06T19:52:10.824Z,26.26
2016-06-06T19:53:10.811Z,26.29
2016-06-06T19:54:10.813Z,26.26
2016-06-06T19:55:10.832Z,26.26
2016-06-06T19:56:10.819Z,26.23
2016-06-06T19:57:10.791Z,26.11
2016-06-06T19:58:10.793Z,26.11
2016-06-06T19:59:10.827Z,26.15
2016-06-06T20:00:10.782Z,26.01
2016-06-06T20:01:10.770Z,25.95
2016-06-06T20:02:10.773Z,25.92
2016-06-06T20:03:10.744Z,25.86
2016-06-06T20:04:10.762Z,25.91
2016-06-06T20:05:11.485Z,25.95
2016-06-06T20:06:10.736Z,25.89
2016-06-06T20:07:10.724Z,25.84
2016-06-06T20:08:10.726Z,25.92
2016-06-06T20:09:10.729Z,25.82
2016-06-06T20:10:10.700Z,25.77
2016-06-06T20:11:10.734Z,25.74
2016-06-06T20:12:10.690Z,25.66
2016-06-06T20:13:10.677Z,25.69
2016-06-06T20:14:10.695Z,25.7
2016-06-06T20:15:10.667Z,25.73
2016-06-06T20:16:10.669Z,25.71
2016-06-06T20:17:10.657Z,25.77
2016-06-06T20:18:10.660Z,25.85
2016-06-06T20:19:10.631Z,25.82
2016-06-06T20:20:11.274Z,25.84
2016-06-06T20:21:10.700Z,25.84
2016-06-06T20:22:10.624Z,25.74
2016-06-06T20:23:10.610Z,25.71
2016-06-06T20:24:10.644Z,25.66
2016-06-06T20:25:10.600Z,25.64
2016-06-06T20:26:10.618Z,25.54
2016-06-06T20:27:10.590Z,25.44
2016-06-06T20:28:10.608Z,25.48
2016-06-06T20:29:10.565Z,25.49
2016-06-06T20:30:10.676Z,25.54
2016-06-06T20:31:10.554Z,25.4
2016-06-06T20:32:10.541Z,25.4
2016-06-06T20:33:10.544Z,25.36
2016-06-06T20:34:10.579Z,25.34
2016-06-06T20:35:11.127Z,25.37
2016-06-06T20:36:10.364Z,25.36
2016-06-06T20:37:10.507Z,25.39
2016-06-06T20:38:10.510Z,25.4
2016-06-06T20:39:10.497Z,25.4
2016-06-06T20:40:10.500Z,25.37
2016-06-06T20:41:10.487Z,25.42
2016-06-06T20:42:10.475Z,25.36
2016-06-06T20:43:10.477Z,25.4
2016-06-06T20:44:10.480Z,25.4
2016-06-06T20:45:10.450Z,25.33
2016-06-06T20:46:10.438Z,25.33
2016-06-06T20:47:10.441Z,25.4
2016-06-06T20:48:10.459Z,25.33
2016-06-06T20:49:10.430Z,25.26
2016-06-06T20:50:10.324Z,25.36
2016-06-06T20:51:10.263Z,25.25
2016-06-06T20:52:10.407Z,25.3
2016-06-06T20:53:10.410Z,25.33
2016-06-06T20:54:10.397Z,25.25
2016-06-06T20:55:10.399Z,25.3
2016-06-06T20:56:10.371Z,25.27
2016-06-06T20:57:10.374Z,25.26
2016-06-06T20:58:10.393Z,25.15
2016-06-06T20:59:10.363Z,25.21
2016-06-06T21:00:10.194Z,25.11
2016-06-06T21:01:10.401Z,25.1
2016-06-06T21:02:10.357Z,25.17
2016-06-06T21:03:10.188Z,25.11
2016-06-06T21:04:10.329Z,25.07
2016-06-06T21:05:11.207Z,25.05
2016-06-06T21:06:10.680Z,25.1
2016-06-06T21:07:10.307Z,24.99
2016-06-06T21:08:10.278Z,25.02
2016-06-06T21:09:10.328Z,25.02
2016-06-06T21:10:10.284Z,25.02
2016-06-06T21:11:10.334Z,24.96
2016-06-06T21:12:10.273Z,24.99
2016-06-06T21:13:10.308Z,24.92
2016-06-06T21:14:10.248Z,24.92
2016-06-06T21:15:10.235Z,24.78
2016-06-06T21:16:10.237Z,24.82
2016-06-06T21:17:10.240Z,24.81
2016-06-06T21:18:10.227Z,24.82
2016-06-06T21:19:10.215Z,24.82
2016-06-06T21:20:10.060Z,24.81
2016-06-06T21:21:10.547Z,24.82
2016-06-06T21:22:10.191Z,24.71
2016-06-06T21:23:10.194Z,24.77
2016-06-06T21:24:10.165Z,24.71
2016-06-06T21:25:10.168Z,24.77
2016-06-06T21:26:10.155Z,24.8
2016-06-06T21:27:10.142Z,24.8
2016-06-06T21:28:10.144Z,24.71
2016-06-06T21:29:10.132Z,24.75
2016-06-06T21:30:10.119Z,24.66
2016-06-06T21:31:10.121Z,24.7
2016-06-06T21:32:10.109Z,24.61
2016-06-06T21:33:10.111Z,24.61
2016-06-06T21:34:10.114Z,24.57
2016-06-06T21:35:10.413Z,24.61
2016-06-06T21:36:11.041Z,24.52